createdAt,value
2019-02-22T00:01:08.036Z,8.27
2019-02-22T00:03:39.668Z,9.20
2019-02-22T00:06:11.250Z,10.03
2019-02-22T00:08:42.735Z,8.00
2019-02-22T00:11:14.334Z,8.23
2019-02-22T00:13:45.828Z,7.17
2019-02-22T00:16:17.326Z,6.73
2019-02-22T00:18:48.829Z,6.13
2019-02-22T00:21:20.336Z,7.40
2019-02-22T00:23:51.818Z,6.90
2019-02-22T00:26:23.338Z,4.80
2019-02-22T00:28:54.973Z,5.90
2019-02-22T00:31:26.502Z,4.53
2019-02-22T00:33:58.071Z,3.73
2019-02-22T00:36:29.611Z,2.70
2019-02-22T00:39:01.085Z,2.47
2019-02-22T00:41:34.371Z,2.07
2019-02-22T00:44:05.916Z,5.40
2019-02-22T00:46:37.438Z,3.20
2019-02-22T00:49:08.929Z,3.27
2019-02-22T00:51:40.455Z,7.43
2019-02-22T00:54:12.029Z,8.17
2019-02-22T00:56:43.637Z,5.40
2019-02-22T00:59:15.273Z,3.83
2019-02-22T01:01:46.863Z,4.93
2019-02-22T01:04:18.467Z,3.60
2019-02-22T01:06:49.986Z,4.23
2019-02-22T01:09:21.565Z,4.00
2019-02-22T01:11:53.097Z,3.83
2019-02-22T01:14:24.687Z,8.20
2019-02-22T01:16:57.352Z,6.23
2019-02-22T01:19:29.057Z,4.83
2019-02-22T01:22:00.572Z,5.47
2019-02-22T01:24:32.147Z,5.73
2019-02-22T01:27:03.776Z,9.03
2019-02-22T01:29:35.280Z,6.53
2019-02-22T01:32:06.784Z,6.90
2019-02-22T01:34:38.360Z,10.83
2019-02-22T01:37:11.011Z,6.53
2019-02-22T01:39:42.522Z,6.50
2019-02-22T01:42:14.089Z,7.20
2019-02-22T01:44:45.579Z,10.40
2019-02-22T01:47:17.107Z,6.40
2019-02-22T01:49:49.697Z,5.53
2019-02-22T01:52:21.190Z,6.57
2019-02-22T01:54:52.686Z,6.80
2019-02-22T01:57:24.187Z,6.67
2019-02-22T01:59:55.844Z,7.20
2019-02-22T02:02:27.340Z,6.00
2019-02-22T02:04:58.850Z,4.50
2019-02-22T02:07:30.341Z,4.80
2019-02-22T02:10:01.998Z,5.27
2019-02-22T02:12:35.091Z,11.43
2019-02-22T02:15:07.087Z,9.93
2019-02-22T02:17:38.600Z,8.23
2019-02-22T02:20:10.170Z,7.63
2019-02-22T02:22:41.718Z,7.63
2019-02-22T02:25:13.217Z,5.60
2019-02-22T02:27:44.737Z,7.73
2019-02-22T02:30:16.330Z,6.67
2019-02-22T02:32:47.847Z,6.97
2019-02-22T02:35:19.434Z,6.63
2019-02-22T02:37:50.944Z,7.23
2019-02-22T02:40:22.504Z,7.33
2019-02-22T02:42:54.321Z,5.53
2019-02-22T02:45:26.894Z,6.97
2019-02-22T02:47:58.432Z,5.50
2019-02-22T02:50:29.939Z,6.90
2019-02-22T02:53:01.434Z,5.53
2019-02-22T02:55:35.386Z,10.93
2019-02-22T02:58:07.021Z,9.40
2019-02-22T03:00:38.733Z,8.07
2019-02-22T03:03:10.261Z,9.73
2019-02-22T03:05:44.271Z,7.97
2019-02-22T03:08:15.778Z,8.63
2019-02-22T03:10:47.276Z,7.30
2019-02-22T03:13:18.777Z,11.37
2019-02-22T03:15:50.330Z,8.57
2019-02-22T03:18:21.907Z,6.47
2019-02-22T03:20:53.486Z,8.00
2019-02-22T03:23:24.977Z,7.30
2019-02-22T03:25:56.467Z,11.87
2019-02-22T03:28:27.975Z,8.00
2019-02-22T03:30:59.496Z,9.70
2019-02-22T03:33:31.210Z,11.40
2019-02-22T03:36:02.783Z,9.80
2019-02-22T03:38:34.299Z,9.27
2019-02-22T03:41:05.791Z,11.13
2019-02-22T03:43:37.367Z,8.13
2019-02-22T03:46:08.941Z,7.53
2019-02-22T03:48:40.856Z,8.07
2019-02-22T03:51:12.355Z,7.27
2019-02-22T03:53:45.488Z,9.10
2019-02-22T03:56:18.268Z,8.87
2019-02-22T03:58:50.842Z,7.47
2019-02-22T04:01:24.622Z,6.53
2019-02-22T04:03:56.119Z,7.30
2019-02-22T04:06:27.679Z,9.03
2019-02-22T04:08:59.169Z,8.50
2019-02-22T04:11:30.743Z,6.43
2019-02-22T04:14:02.276Z,8.13
2019-02-22T04:16:33.925Z,7.23
2019-02-22T04:19:05.444Z,10.43
2019-02-22T04:21:37.014Z,7.57
2019-02-22T04:24:08.598Z,7.77
2019-02-22T04:26:40.079Z,5.97
2019-02-22T04:29:11.581Z,9.97
2019-02-22T04:31:43.090Z,11.17
2019-02-22T04:34:14.664Z,6.27
2019-02-22T04:36:46.188Z,7.30
2019-02-22T04:39:17.681Z,9.23
2019-02-22T04:41:57.677Z,6.27
2019-02-22T04:44:22.434Z,3.97
2019-02-22T04:46:53.936Z,9.40
2019-02-22T04:49:25.477Z,9.53
2019-02-22T04:51:57.135Z,6.80
2019-02-22T04:54:28.631Z,9.13
2019-02-22T04:57:00.137Z,8.63
2019-02-22T04:59:31.653Z,8.47
2019-02-22T05:02:03.214Z,6.87
2019-02-22T05:04:34.700Z,10.60
2019-02-22T05:07:06.200Z,12.03
2019-02-22T05:09:37.713Z,11.07
2019-02-22T05:12:11.149Z,8.63
2019-02-22T05:14:42.450Z,8.90
2019-02-22T05:17:14.006Z,9.87
2019-02-22T05:19:45.606Z,8.37
2019-02-22T05:22:17.109Z,9.70
2019-02-22T05:24:48.631Z,8.27
2019-02-22T05:27:20.340Z,11.87
2019-02-22T05:29:51.851Z,7.07
2019-02-22T05:32:23.371Z,7.37
2019-02-22T05:34:54.868Z,6.83
2019-02-22T05:37:26.365Z,7.40
2019-02-22T05:39:57.874Z,10.40
2019-02-22T05:42:29.390Z,7.83
2019-02-22T05:45:00.954Z,8.90
2019-02-22T05:47:32.451Z,10.27
2019-02-22T05:50:04.318Z,7.70
2019-02-22T05:52:35.839Z,6.47
2019-02-22T05:55:07.508Z,5.30
2019-02-22T05:57:39.021Z,9.20
2019-02-22T06:00:11.565Z,10.20
2019-02-22T06:02:43.134Z,8.40
2019-02-22T06:05:14.646Z,9.13
2019-02-22T06:07:46.202Z,6.13
2019-02-22T06:10:17.710Z,8.37
2019-02-22T06:12:49.246Z,8.60
2019-02-22T06:15:20.829Z,5.50
2019-02-22T06:17:52.439Z,7.53
2019-02-22T06:20:23.924Z,8.77
2019-02-22T06:22:56.460Z,5.67
2019-02-22T06:25:28.043Z,7.67
2019-02-22T06:27:59.595Z,6.33
2019-02-22T06:30:31.185Z,7.23
2019-02-22T06:33:03.681Z,6.67
2019-02-22T06:35:36.247Z,4.63
2019-02-22T06:38:07.750Z,5.53
2019-02-22T06:40:39.238Z,8.60
2019-02-22T06:43:10.733Z,7.33
2019-02-22T06:45:43.325Z,6.50
2019-02-22T06:48:15.902Z,6.33
2019-02-22T06:50:47.403Z,9.87
2019-02-22T06:53:19.981Z,8.80
2019-02-22T06:55:51.483Z,8.83
2019-02-22T06:58:22.999Z,9.60
2019-02-22T07:00:54.505Z,7.60
2019-02-22T07:03:25.985Z,7.90
2019-02-22T07:05:57.535Z,6.70
2019-02-22T07:08:29.066Z,6.00
2019-02-22T07:11:03.195Z,10.23
2019-02-22T07:13:34.755Z,12.30
2019-02-22T07:16:06.338Z,13.33
2019-02-22T07:18:37.917Z,11.13
2019-02-22T07:21:09.427Z,9.70
2019-02-22T07:23:40.948Z,9.70
2019-02-22T07:26:12.428Z,6.03
2019-02-22T07:28:43.916Z,11.47
2019-02-22T07:31:15.426Z,5.83
2019-02-22T07:33:47.112Z,8.77
2019-02-22T07:36:18.731Z,7.97
2019-02-22T07:38:50.359Z,6.47
2019-02-22T07:41:21.914Z,8.03
2019-02-22T07:43:53.411Z,7.90
2019-02-22T07:46:24.899Z,6.87
2019-02-22T07:48:56.402Z,8.17
2019-02-22T07:51:28.887Z,9.63
2019-02-22T07:54:00.401Z,8.83
2019-02-22T07:56:31.894Z,5.60
2019-02-22T07:59:03.397Z,4.63
2019-02-22T08:01:46.558Z,5.13
2019-02-22T08:04:08.139Z,8.87
2019-02-22T08:06:42.354Z,6.87
2019-02-22T08:09:12.870Z,6.27
2019-02-22T08:11:46.684Z,7.60
2019-02-22T08:14:17.648Z,7.63
2019-02-22T08:16:49.191Z,8.83
2019-02-22T08:19:20.681Z,12.00
2019-02-22T08:21:52.201Z,11.67
2019-02-22T08:24:25.863Z,3.43
2019-02-22T08:26:56.895Z,12.03
2019-02-22T08:29:28.413Z,7.13
2019-02-22T08:31:59.976Z,6.93
2019-02-22T08:34:31.483Z,5.27
2019-02-22T08:37:03.003Z,6.67
2019-02-22T08:39:34.522Z,9.63
2019-02-22T08:42:06.011Z,7.17
2019-02-22T08:44:37.505Z,5.50
2019-02-22T08:47:09.086Z,7.33
2019-02-22T08:49:40.615Z,7.60
2019-02-22T08:52:12.122Z,8.63
2019-02-22T08:54:46.958Z,3.57
2019-02-22T08:57:16.985Z,8.07
2019-02-22T08:59:48.478Z,5.43
2019-02-22T09:02:20.088Z,7.53
2019-02-22T09:04:51.743Z,12.77
2019-02-22T09:07:23.278Z,7.13
2019-02-22T09:09:54.858Z,6.43
2019-02-22T09:12:26.443Z,6.43
2019-02-22T09:14:58.043Z,6.73
2019-02-22T09:17:30.626Z,7.20
2019-02-22T09:20:02.167Z,4.30
2019-02-22T09:22:35.260Z,8.07
2019-02-22T09:25:07.365Z,4.93
2019-02-22T09:27:38.881Z,5.47
2019-02-22T09:30:12.327Z,3.77
2019-02-22T09:32:43.893Z,5.53
2019-02-22T09:35:15.380Z,6.33
2019-02-22T09:37:46.891Z,5.57
2019-02-22T09:40:19.539Z,2.87
2019-02-22T09:42:51.153Z,6.07
2019-02-22T09:45:24.479Z,5.77
2019-02-22T09:47:55.849Z,4.20
2019-02-22T09:50:27.396Z,8.87
2019-02-22T09:52:58.884Z,7.90
2019-02-22T09:55:30.521Z,5.97
2019-02-22T09:58:02.038Z,11.80
2019-02-22T10:00:33.619Z,4.77
2019-02-22T10:03:05.105Z,10.40
2019-02-22T10:05:36.687Z,4.73
2019-02-22T10:08:08.186Z,5.40
2019-02-22T10:10:39.691Z,7.53
2019-02-22T10:13:11.177Z,5.47
2019-02-22T10:15:42.679Z,4.63
2019-02-22T10:18:14.250Z,3.73
2019-02-22T10:20:45.826Z,10.13
2019-02-22T10:23:17.413Z,9.10
2019-02-22T10:25:48.917Z,8.80
2019-02-22T10:28:20.500Z,7.17
2019-02-22T10:30:53.670Z,6.50
2019-02-22T10:33:35.943Z,11.50
2019-02-22T10:35:58.449Z,5.77
2019-02-22T10:38:32.927Z,9.47
2019-02-22T10:41:03.218Z,6.80
2019-02-22T10:43:34.710Z,7.90
2019-02-22T10:46:07.293Z,8.30
2019-02-22T10:48:38.859Z,5.97
2019-02-22T10:51:10.368Z,6.50
2019-02-22T10:53:41.946Z,10.87
2019-02-22T10:56:13.486Z,4.60
2019-02-22T10:58:45.052Z,4.13
2019-02-22T11:01:16.539Z,9.27
2019-02-22T11:03:48.042Z,5.40
2019-02-22T11:06:19.614Z,5.43
2019-02-22T11:08:51.610Z,3.37
2019-02-22T11:11:23.099Z,6.10
2019-02-22T11:13:54.664Z,1.23
2019-02-22T11:16:26.162Z,5.10
2019-02-22T11:18:57.696Z,3.53
2019-02-22T11:21:29.242Z,4.93
2019-02-22T11:24:00.852Z,3.90
2019-02-22T11:26:32.394Z,4.20
2019-02-22T11:29:04.034Z,3.10
2019-02-22T11:31:35.765Z,6.47
2019-02-22T11:34:07.271Z,6.10
2019-02-22T11:36:38.868Z,4.97
2019-02-22T11:39:10.400Z,5.87
2019-02-22T11:41:41.956Z,6.47
2019-02-22T11:44:13.462Z,5.90
2019-02-22T11:46:44.979Z,5.87
2019-02-22T11:49:16.509Z,6.47
2019-02-22T11:51:48.067Z,4.67
2019-02-22T11:54:19.674Z,10.47
2019-02-22T11:56:52.252Z,6.40
2019-02-22T11:59:23.755Z,6.70
2019-02-22T12:01:55.401Z,7.63
2019-02-22T12:04:26.906Z,5.97
2019-02-22T12:06:58.414Z,5.07
2019-02-22T12:09:29.922Z,5.63
2019-02-22T12:12:01.399Z,4.83
2019-02-22T12:14:32.966Z,6.77
2019-02-22T12:17:05.547Z,4.53
2019-02-22T12:19:37.199Z,7.93
2019-02-22T12:22:08.694Z,6.80
2019-02-22T12:24:41.151Z,7.40
2019-02-22T12:27:14.209Z,6.23
2019-02-22T12:29:45.997Z,6.27
2019-02-22T12:32:17.517Z,13.73
2019-02-22T12:34:49.126Z,6.67
2019-02-22T12:37:20.609Z,8.03
2019-02-22T12:39:52.113Z,6.37
2019-02-22T12:42:23.624Z,4.90
2019-02-22T12:45:02.488Z,5.40
2019-02-22T12:47:28.384Z,6.97
2019-02-22T12:49:59.890Z,4.87
2019-02-22T12:52:31.394Z,6.33
2019-02-22T12:55:02.898Z,1.27
2019-02-22T12:57:34.550Z,4.07
2019-02-22T13:00:16.290Z,3.97
2019-02-22T13:02:48.131Z,4.77
2019-02-22T13:05:26.812Z,3.03
2019-02-22T13:07:58.304Z,2.57
2019-02-22T13:10:29.985Z,4.90
2019-02-22T13:13:01.481Z,5.00
2019-02-22T13:15:33.053Z,4.83
2019-02-22T13:18:04.656Z,3.80
2019-02-22T13:20:36.150Z,6.03
2019-02-22T13:23:07.746Z,7.03
2019-02-22T13:25:39.265Z,6.50
2019-02-22T13:28:10.858Z,5.63
2019-02-22T13:30:42.430Z,10.03
2019-02-22T13:33:13.942Z,3.80
2019-02-22T13:35:45.576Z,4.07
2019-02-22T13:38:17.095Z,3.43
2019-02-22T13:40:49.863Z,5.43
2019-02-22T13:43:21.494Z,4.50
2019-02-22T13:45:53.056Z,3.97
2019-02-22T13:48:24.562Z,9.57
2019-02-22T13:50:56.117Z,9.63
2019-02-22T13:53:27.778Z,7.47
2019-02-22T13:55:59.331Z,6.07
2019-02-22T13:58:30.838Z,8.83
2019-02-22T14:01:02.475Z,18.63
2019-02-22T14:03:34.056Z,7.00
2019-02-22T14:06:05.579Z,7.83
2019-02-22T14:08:37.085Z,6.57
2019-02-22T14:11:08.597Z,11.50
2019-02-22T14:13:40.103Z,6.13
2019-02-22T14:16:11.603Z,5.47
2019-02-22T14:18:43.124Z,9.17
2019-02-22T14:21:14.656Z,8.60
2019-02-22T14:23:46.151Z,6.47
2019-02-22T14:26:17.684Z,6.40
2019-02-22T14:28:49.262Z,9.60
2019-02-22T14:31:20.840Z,4.67
2019-02-22T14:33:52.431Z,7.20
2019-02-22T14:36:24.041Z,6.13
2019-02-22T14:38:55.599Z,15.03
2019-02-22T14:41:28.023Z,8.43
2019-02-22T14:43:59.639Z,6.53
2019-02-22T14:46:31.139Z,13.83
2019-02-22T14:49:02.667Z,13.90
2019-02-22T14:51:34.182Z,14.93
2019-02-22T14:54:05.742Z,8.97
2019-02-22T14:56:37.284Z,8.93
2019-02-22T14:59:08.899Z,8.07
2019-02-22T15:01:40.543Z,6.80
2019-02-22T15:04:12.042Z,5.97
2019-02-22T15:06:43.689Z,8.40
2019-02-22T15:09:15.313Z,5.83
2019-02-22T15:11:46.832Z,7.37
2019-02-22T15:14:18.357Z,4.93
2019-02-22T15:16:49.622Z,3.90
2019-02-22T15:19:22.239Z,4.97
2019-02-22T15:21:53.942Z,4.07
2019-02-22T15:24:37.480Z,7.70
2019-02-22T15:27:09.012Z,4.13
2019-02-22T15:29:41.029Z,10.10
2019-02-22T15:32:12.602Z,10.00
2019-02-22T15:34:45.783Z,5.07
2019-02-22T15:37:17.368Z,6.30
2019-02-22T15:39:48.956Z,6.57
2019-02-22T15:42:20.537Z,9.17
2019-02-22T15:44:52.115Z,8.83
2019-02-22T15:47:24.830Z,6.53
2019-02-22T15:49:56.358Z,9.47
2019-02-22T15:52:27.875Z,6.73
2019-02-22T15:54:59.464Z,6.50
2019-02-22T15:57:31.051Z,7.47
2019-02-22T16:00:02.637Z,6.83
2019-02-22T16:02:35.939Z,5.80
2019-02-22T16:05:10.589Z,9.03
2019-02-22T16:07:44.915Z,7.30
2019-02-22T16:10:15.844Z,7.67
2019-02-22T16:12:48.009Z,8.40
2019-02-22T16:15:20.251Z,8.57
2019-02-22T16:17:53.139Z,9.93
2019-02-22T16:20:24.650Z,7.37
2019-02-22T16:22:56.176Z,9.00
2019-02-22T16:25:27.745Z,7.10
2019-02-22T16:27:59.281Z,8.53
2019-02-22T16:30:32.388Z,6.47
2019-02-22T16:33:04.157Z,7.27
2019-02-22T16:35:35.671Z,7.13
2019-02-22T16:38:07.187Z,7.03
2019-02-22T16:40:38.691Z,7.60
2019-02-22T16:43:10.333Z,9.87
2019-02-22T16:45:41.855Z,9.80
2019-02-22T16:48:13.384Z,7.97
2019-02-22T16:50:44.904Z,6.70
2019-02-22T16:53:16.707Z,9.63
2019-02-22T16:55:48.243Z,7.60
2019-02-22T16:58:19.757Z,8.63
2019-02-22T17:00:51.444Z,9.00
2019-02-22T17:03:23.167Z,10.17
2019-02-22T17:05:54.762Z,12.07
2019-02-22T17:08:26.364Z,16.37
2019-02-22T17:10:58.007Z,12.80
2019-02-22T17:13:29.731Z,13.50
2019-02-22T17:16:01.329Z,10.30
2019-02-22T17:18:32.965Z,12.80
2019-02-22T17:21:04.937Z,11.43
2019-02-22T17:23:36.472Z,10.60
2019-02-22T17:26:11.920Z,12.93
2019-02-22T17:28:43.623Z,16.80
2019-02-22T17:31:15.382Z,15.83
2019-02-22T17:33:47.283Z,13.73
2019-02-22T17:36:26.487Z,15.50
2019-02-22T17:38:52.356Z,12.63
2019-02-22T17:41:23.938Z,17.40
2019-02-22T17:43:55.547Z,15.23
2019-02-22T17:46:27.072Z,9.63
2019-02-22T17:48:58.599Z,16.77
2019-02-22T17:51:30.172Z,15.87
2019-02-22T17:54:01.817Z,16.70
2019-02-22T17:56:33.513Z,16.17
2019-02-22T17:59:05.161Z,15.47
2019-02-22T18:01:36.713Z,18.17
2019-02-22T18:04:09.537Z,15.47
2019-02-22T18:06:41.300Z,14.83
2019-02-22T18:09:12.903Z,15.27
2019-02-22T18:11:44.792Z,16.70
2019-02-22T18:14:16.405Z,12.47
2019-02-22T18:16:48.066Z,17.17
2019-02-22T18:19:19.729Z,19.13
2019-02-22T18:21:51.317Z,17.17
2019-02-22T18:24:23.028Z,18.80
2019-02-22T18:26:54.747Z,23.17
2019-02-22T18:29:35.189Z,16.60
2019-02-22T18:32:00.393Z,14.97
2019-02-22T18:34:31.921Z,21.97
2019-02-22T18:37:03.566Z,23.57
2019-02-22T18:39:35.301Z,19.67
2019-02-22T18:42:06.840Z,15.00
2019-02-22T18:44:38.500Z,17.87
2019-02-22T18:47:19.012Z,13.83
2019-02-22T18:49:43.381Z,20.77
2019-02-22T18:52:14.916Z,15.50
2019-02-22T18:54:46.458Z,15.33
2019-02-22T18:57:18.055Z,16.47
2019-02-22T18:59:49.678Z,20.87
2019-02-22T19:02:21.242Z,15.73
2019-02-22T19:04:52.891Z,17.30
2019-02-22T19:07:24.465Z,15.43
2019-02-22T19:09:56.052Z,28.23
2019-02-22T19:12:27.758Z,36.37
2019-02-22T19:14:59.470Z,24.47
2019-02-22T19:17:31.888Z,23.93
2019-02-22T19:20:03.496Z,21.70
2019-02-22T19:22:35.154Z,20.87
2019-02-22T19:25:09.023Z,21.33
2019-02-22T19:27:40.535Z,24.20
2019-02-22T19:30:17.929Z,25.47
2019-02-22T19:32:49.433Z,22.10
2019-02-22T19:35:20.957Z,31.23
2019-02-22T19:37:52.632Z,27.10
2019-02-22T19:40:27.209Z,37.43
2019-02-22T19:42:58.922Z,34.40
2019-02-22T19:45:31.465Z,30.90
2019-02-22T19:48:03.063Z,52.33
2019-02-22T19:50:41.339Z,45.57
2019-02-22T19:53:08.192Z,36.53
2019-02-22T19:55:39.796Z,38.97
2019-02-22T19:58:11.337Z,48.47
2019-02-22T20:00:42.933Z,44.40
2019-02-22T20:03:14.592Z,51.47
2019-02-22T20:05:46.226Z,35.23
2019-02-22T20:08:17.944Z,33.40
2019-02-22T20:10:49.518Z,41.30
2019-02-22T20:13:21.109Z,29.70
2019-02-22T20:15:52.764Z,33.47
2019-02-22T20:18:24.510Z,35.50
2019-02-22T20:20:56.202Z,41.37
2019-02-22T20:23:27.845Z,38.70
2019-02-22T20:25:59.897Z,40.23
2019-02-22T20:28:31.700Z,39.37
2019-02-22T20:31:03.322Z,36.30
2019-02-22T20:33:34.894Z,34.70
2019-02-22T20:36:06.427Z,39.13
2019-02-22T20:38:38.247Z,40.67
2019-02-22T20:41:10.029Z,41.03
2019-02-22T20:43:41.674Z,43.73
2019-02-22T20:46:14.106Z,46.73
2019-02-22T20:48:45.705Z,41.17
2019-02-22T20:51:18.423Z,42.37
2019-02-22T20:53:50.048Z,37.17
2019-02-22T20:56:21.728Z,36.50
2019-02-22T20:58:53.335Z,32.50
2019-02-22T21:01:24.944Z,39.43
2019-02-22T21:03:59.201Z,33.47
2019-02-22T21:06:31.181Z,28.10
2019-02-22T21:09:02.942Z,39.80
2019-02-22T21:11:36.155Z,42.00
2019-02-22T21:14:07.690Z,64.07
2019-02-22T21:16:39.235Z,86.53
2019-02-22T21:19:10.846Z,94.37
2019-02-22T21:21:42.420Z,75.27
2019-02-22T21:24:13.936Z,120.53
2019-02-22T21:26:45.514Z,51.73
2019-02-22T21:29:17.544Z,37.00
2019-02-22T21:31:49.240Z,42.00
2019-02-22T21:34:20.866Z,29.17
2019-02-22T21:36:52.407Z,38.43
2019-02-22T21:39:24.142Z,39.63
2019-02-22T21:41:55.737Z,47.33
2019-02-22T21:44:27.409Z,38.70
2019-02-22T21:46:58.953Z,44.50
2019-02-22T21:49:30.689Z,66.23
2019-02-22T21:52:02.576Z,70.63
2019-02-22T21:54:34.177Z,71.63
2019-02-22T21:57:05.861Z,62.50
2019-02-22T21:59:37.421Z,63.70
2019-02-22T22:02:09.057Z,53.50
2019-02-22T22:04:40.592Z,37.53
2019-02-22T22:07:12.238Z,39.63
2019-02-22T22:09:44.363Z,31.83
2019-02-22T22:12:15.901Z,40.77
2019-02-22T22:14:48.452Z,39.23
2019-02-22T22:17:20.021Z,35.50
2019-02-22T22:19:51.697Z,36.50
2019-02-22T22:22:23.476Z,38.03
2019-02-22T22:24:55.162Z,39.67
2019-02-22T22:27:26.799Z,40.50
2019-02-22T22:29:58.356Z,41.33
2019-02-22T22:32:29.998Z,41.63
2019-02-22T22:35:01.829Z,32.87
2019-02-22T22:37:33.497Z,41.37
2019-02-22T22:40:05.122Z,40.33
2019-02-22T22:42:36.799Z,42.03
2019-02-22T22:45:16.240Z,39.77
2019-02-22T22:47:47.923Z,41.53
2019-02-22T22:50:19.583Z,48.23
2019-02-22T22:52:51.191Z,35.47
2019-02-22T22:55:22.868Z,36.20
2019-02-22T22:57:54.569Z,38.87
2019-02-22T23:00:51.705Z,46.10
2019-02-22T23:03:24.713Z,37.43
2019-02-22T23:05:56.316Z,28.27
2019-02-22T23:08:27.922Z,37.77
2019-02-22T23:10:59.500Z,45.70
2019-02-22T23:13:31.380Z,41.57
2019-02-22T23:16:03.057Z,46.37
2019-02-22T23:18:34.669Z,39.83
2019-02-22T23:21:06.327Z,48.93
2019-02-22T23:23:37.868Z,45.97
2019-02-22T23:26:09.466Z,41.40
2019-02-22T23:28:41.086Z,44.63
2019-02-22T23:31:12.774Z,45.97
2019-02-22T23:33:44.442Z,44.57
2019-02-22T23:36:15.993Z,50.57
2019-02-22T23:38:47.520Z,46.70
2019-02-22T23:41:20.185Z,51.80
2019-02-22T23:43:51.793Z,61.03
2019-02-22T23:46:23.430Z,51.63
2019-02-22T23:48:55.034Z,53.20
2019-02-22T23:51:26.697Z,50.27
2019-02-22T23:53:58.299Z,57.10
2019-02-22T23:56:30.037Z,55.40
2019-02-22T23:59:02.076Z,48.63
